Terminal Aerodrome Forecast
Issued by NWS

Home | Current Version | Previous Version | Graphics & Text | Print | Product List | Glossary On
Versions: 1 2 3 4 5 6 7 8 9 10 11 12 13 14 15
000
FTUS43 KGRB 232300
TAFMTW
TAF
KMTW 232325Z 2400/2424 23011KT P6SM SCT040 BKN060
      TEMPO 2400/2401 4SM -SHSN BKN025
     FM240400 25007KT P6SM SCT025 BKN040
      TEMPO 2404/2407 BKN025
     FM240700 28006KT 6SM BR SCT018 BKN025
     FM241500 27007KT P6SM SCT020 BKN028=

USA.gov is the U.S. government's official web portal to all federal, state and local government web resources and services.